sensor_id;sensor_type;location;lat;lon;timestamp;pressure;altitude;pressure_sealevel;temperature;humidity
54854;BME280;40747;49.480;8.658;2023-02-28T00:02:25;101316.41;;;-1.02;76.78
54854;BME280;40747;49.480;8.658;2023-02-28T00:04:50;101306.47;;;-1.16;76.66
54854;BME280;40747;49.480;8.658;2023-02-28T00:07:18;101312.44;;;-0.91;76.31
54854;BME280;40747;49.480;8.658;2023-02-28T00:09:43;101314.19;;;-0.90;75.84
54854;BME280;40747;49.480;8.658;2023-02-28T00:12:09;101319.44;;;-1.14;76.95
54854;BME280;40747;49.480;8.658;2023-02-28T00:14:36;101301.00;;;-1.25;77.04
54854;BME280;40747;49.480;8.658;2023-02-28T00:17:01;101316.03;;;-1.13;77.13
54854;BME280;40747;49.480;8.658;2023-02-28T00:19:26;101305.13;;;-1.30;76.85
54854;BME280;40747;49.480;8.658;2023-02-28T00:21:52;101309.63;;;-1.24;77.01
54854;BME280;40747;49.480;8.658;2023-02-28T00:24:17;101316.03;;;-1.39;78.01
54854;BME280;40747;49.480;8.658;2023-02-28T00:26:42;101300.03;;;-1.53;78.60
54854;BME280;40747;49.480;8.658;2023-02-28T00:29:08;101307.19;;;-1.45;79.01
54854;BME280;40747;49.480;8.658;2023-02-28T00:31:33;101309.41;;;-1.56;78.33
54854;BME280;40747;49.480;8.658;2023-02-28T00:33:58;101312.25;;;-1.73;79.57
54854;BME280;40747;49.480;8.658;2023-02-28T00:36:23;101318.38;;;-1.71;79.56
54854;BME280;40747;49.480;8.658;2023-02-28T00:38:49;101308.97;;;-1.69;78.81
54854;BME280;40747;49.480;8.658;2023-02-28T00:41:14;101306.53;;;-1.64;79.58
54854;BME280;40747;49.480;8.658;2023-02-28T00:43:39;101306.44;;;-1.67;79.78
54854;BME280;40747;49.480;8.658;2023-02-28T00:46:05;101289.25;;;-1.91;79.22
54854;BME280;40747;49.480;8.658;2023-02-28T00:48:31;101304.50;;;-1.97;80.32
54854;BME280;40747;49.480;8.658;2023-02-28T00:50:56;101315.88;;;-1.92;80.00
54854;BME280;40747;49.480;8.658;2023-02-28T00:53:22;101302.16;;;-1.91;80.13
54854;BME280;40747;49.480;8.658;2023-02-28T00:55:49;101303.69;;;-1.96;80.24
54854;BME280;40747;49.480;8.658;2023-02-28T00:58:14;101312.06;;;-2.03;80.95
54854;BME280;40747;49.480;8.658;2023-02-28T01:00:40;101309.28;;;-2.08;80.74
54854;BME280;40747;49.480;8.658;2023-02-28T01:03:05;101308.00;;;-1.96;80.96
54854;BME280;40747;49.480;8.658;2023-02-28T01:05:30;101312.06;;;-2.03;80.42
54854;BME280;40747;49.480;8.658;2023-02-28T01:07:55;101314.75;;;-2.00;80.50
54854;BME280;40747;49.480;8.658;2023-02-28T01:10:21;101310.66;;;-2.18;81.37
54854;BME280;40747;49.480;8.658;2023-02-28T01:12:46;101315.81;;;-2.18;81.55
54854;BME280;40747;49.480;8.658;2023-02-28T01:15:11;101284.84;;;-2.18;81.47
54854;BME280;40747;49.480;8.658;2023-02-28T01:17:37;101279.56;;;-2.21;81.56
54854;BME280;40747;49.480;8.658;2023-02-28T01:20:02;101304.63;;;-2.18;81.12
54854;BME280;40747;49.480;8.658;2023-02-28T01:22:28;101309.53;;;-2.02;81.33
54854;BME280;40747;49.480;8.658;2023-02-28T01:24:53;101311.69;;;-2.12;81.48
54854;BME280;40747;49.480;8.658;2023-02-28T01:27:19;101301.72;;;-2.03;81.86
54854;BME280;40747;49.480;8.658;2023-02-28T01:29:44;101306.28;;;-1.96;81.47
54854;BME280;40747;49.480;8.658;2023-02-28T01:32:09;101295.28;;;-2.15;81.66
54854;BME280;40747;49.480;8.658;2023-02-28T01:34:35;101309.41;;;-2.05;81.77
54854;BME280;40747;49.480;8.658;2023-02-28T01:37:00;101300.84;;;-2.04;81.65
54854;BME280;40747;49.480;8.658;2023-02-28T01:39:26;101313.38;;;-2.15;81.86
54854;BME280;40747;49.480;8.658;2023-02-28T01:41:51;101309.50;;;-2.26;82.02
54854;BME280;40747;49.480;8.658;2023-02-28T01:47:19;101290.72;;;-2.22;82.35
54854;BME280;40747;49.480;8.658;2023-02-28T01:49:45;101306.16;;;-2.23;82.40
54854;BME280;40747;49.480;8.658;2023-02-28T01:52:12;101303.16;;;-2.34;83.04
54854;BME280;40747;49.480;8.658;2023-02-28T01:54:47;101303.63;;;-2.44;83.56
54854;BME280;40747;49.480;8.658;2023-02-28T01:57:18;101296.84;;;-2.42;84.22
54854;BME280;40747;49.480;8.658;2023-02-28T01:59:50;101282.75;;;-2.51;83.71
54854;BME280;40747;49.480;8.658;2023-02-28T02:02:19;101305.28;;;-2.47;83.66
54854;BME280;40747;49.480;8.658;2023-02-28T02:04:55;101301.66;;;-2.52;84.55
54854;BME280;40747;49.480;8.658;2023-02-28T02:07:23;101296.50;;;-2.52;84.20
54854;BME280;40747;49.480;8.658;2023-02-28T02:09:50;101279.44;;;-2.48;84.27
54854;BME280;40747;49.480;8.658;2023-02-28T02:12:31;101293.78;;;-2.32;83.73
54854;BME280;40747;49.480;8.658;2023-02-28T02:15:08;101293.06;;;-2.28;83.89
54854;BME280;40747;49.480;8.658;2023-02-28T02:17:57;101289.31;;;-2.13;83.22
54854;BME280;40747;49.480;8.658;2023-02-28T02:29:14;101276.66;;;-2.30;83.33
54854;BME280;40747;49.480;8.658;2023-02-28T02:37:05;101282.19;;;-2.19;83.25
54854;BME280;40747;49.480;8.658;2023-02-28T02:45:16;101285.28;;;-2.05;82.67
54854;BME280;40747;49.480;8.658;2023-02-28T02:47:45;101233.53;;;-2.57;82.52
54854;BME280;40747;49.480;8.658;2023-02-28T02:50:17;101286.84;;;-2.33;83.68
54854;BME280;40747;49.480;8.658;2023-02-28T02:52:49;101283.69;;;-2.26;83.05
54854;BME280;40747;49.480;8.658;2023-02-28T02:55:17;101291.59;;;-2.21;82.41
54854;BME280;40747;49.480;8.658;2023-02-28T02:57:50;101284.72;;;-2.21;82.88
54854;BME280;40747;49.480;8.658;2023-02-28T03:00:19;101264.91;;;-2.22;82.42
54854;BME280;40747;49.480;8.658;2023-02-28T03:02:47;101284.28;;;-2.09;82.01
54854;BME280;40747;49.480;8.658;2023-02-28T03:05:18;101276.94;;;-2.22;81.88
54854;BME280;40747;49.480;8.658;2023-02-28T03:07:44;101288.38;;;-2.16;82.33
54854;BME280;40747;49.480;8.658;2023-02-28T03:10:32;101272.38;;;-2.05;82.81
54854;BME280;40747;49.480;8.658;2023-02-28T03:13:11;101279.94;;;-2.10;81.84
54854;BME280;40747;49.480;8.658;2023-02-28T03:15:55;101283.66;;;-2.03;81.77
54854;BME280;40747;49.480;8.658;2023-02-28T03:18:32;101278.22;;;-2.11;81.78
54854;BME280;40747;49.480;8.658;2023-02-28T03:26:25;101272.28;;;-2.08;82.08
54854;BME280;40747;49.480;8.658;2023-02-28T03:29:02;101276.78;;;-2.03;81.62
54854;BME280;40747;49.480;8.658;2023-02-28T03:34:14;101279.88;;;-1.89;81.36
54854;BME280;40747;49.480;8.658;2023-02-28T03:36:46;101274.91;;;-1.83;80.52
54854;BME280;40747;49.480;8.658;2023-02-28T03:39:36;101271.13;;;-1.92;80.90
54854;BME280;40747;49.480;8.658;2023-02-28T03:42:08;101284.47;;;-2.04;80.76
54854;BME280;40747;49.480;8.658;2023-02-28T03:44:54;101269.31;;;-1.95;81.38
54854;BME280;40747;49.480;8.658;2023-02-28T03:47:27;101270.53;;;-2.09;81.97
54854;BME280;40747;49.480;8.658;2023-02-28T03:49:58;101279.94;;;-2.10;82.05
54854;BME280;40747;49.480;8.658;2023-02-28T03:52:33;101279.19;;;-2.07;81.70
54854;BME280;40747;49.480;8.658;2023-02-28T03:55:03;101276.72;;;-2.04;81.87
54854;BME280;40747;49.480;8.658;2023-02-28T03:57:38;101274.63;;;-2.15;82.40
54854;BME280;40747;49.480;8.658;2023-02-28T04:00:10;101275.47;;;-2.16;82.30
54854;BME280;40747;49.480;8.658;2023-02-28T04:02:37;101281.56;;;-2.13;82.55
54854;BME280;40747;49.480;8.658;2023-02-28T04:05:02;101277.28;;;-2.13;82.45
54854;BME280;40747;49.480;8.658;2023-02-28T04:07:31;101279.91;;;-2.11;82.09
54854;BME280;40747;49.480;8.658;2023-02-28T04:09:57;101270.94;;;-2.21;82.52
54854;BME280;40747;49.480;8.658;2023-02-28T04:12:22;101277.56;;;-2.05;82.09
54854;BME280;40747;49.480;8.658;2023-02-28T04:14:48;101259.09;;;-2.16;81.97
54854;BME280;40747;49.480;8.658;2023-02-28T04:17:14;101267.22;;;-2.05;82.04
54854;BME280;40747;49.480;8.658;2023-02-28T04:19:39;101282.72;;;-2.05;81.62
54854;BME280;40747;49.480;8.658;2023-02-28T04:22:05;101275.69;;;-2.09;81.78
54854;BME280;40747;49.480;8.658;2023-02-28T04:24:30;101264.47;;;-2.10;82.09
54854;BME280;40747;49.480;8.658;2023-02-28T04:26:56;101276.72;;;-2.04;81.99
54854;BME280;40747;49.480;8.658;2023-02-28T04:29:33;101270.13;;;-1.96;81.46
54854;BME280;40747;49.480;8.658;2023-02-28T04:31:59;101275.28;;;-1.96;81.46
54854;BME280;40747;49.480;8.658;2023-02-28T04:34:30;101275.69;;;-2.09;81.57
54854;BME280;40747;49.480;8.658;2023-02-28T04:36:56;101253.28;;;-2.10;81.53
54854;BME280;40747;49.480;8.658;2023-02-28T04:39:23;101260.16;;;-2.11;81.39
54854;BME280;40747;49.480;8.658;2023-02-28T04:41:49;101278.28;;;-2.09;81.99
54854;BME280;40747;49.480;8.658;2023-02-28T04:44:15;101260.75;;;-2.18;82.28
54854;BME280;40747;49.480;8.658;2023-02-28T04:46:41;101262.66;;;-2.12;81.51
54854;BME280;40747;49.480;8.658;2023-02-28T04:49:08;101274.97;;;-2.05;81.64
54854;BME280;40747;49.480;8.658;2023-02-28T04:51:33;101266.22;;;-2.09;81.63
54854;BME280;40747;49.480;8.658;2023-02-28T04:53:58;101267.22;;;-2.05;81.98
54854;BME280;40747;49.480;8.658;2023-02-28T04:56:24;101269.56;;;-2.11;82.14
54854;BME280;40747;49.480;8.658;2023-02-28T04:58:49;101279.81;;;-2.15;82.63
54854;BME280;40747;49.480;8.658;2023-02-28T05:01:20;101271.06;;;-2.18;82.28
54854;BME280;40747;49.480;8.658;2023-02-28T05:03:46;101277.00;;;-2.21;82.64
54854;BME280;40747;49.480;8.658;2023-02-28T05:06:12;101273.88;;;-2.12;82.61
54854;BME280;40747;49.480;8.658;2023-02-28T05:08:38;101282.25;;;-2.18;82.60
54854;BME280;40747;49.480;8.658;2023-02-28T05:11:05;101285.03;;;-2.13;82.64
54854;BME280;40747;49.480;8.658;2023-02-28T05:13:31;101281.44;;;-2.17;82.23
54854;BME280;40747;49.480;8.658;2023-02-28T05:15:56;101291.03;;;-2.12;82.97
54854;BME280;40747;49.480;8.658;2023-02-28T05:18:21;101289.50;;;-2.07;81.98
54854;BME280;40747;49.480;8.658;2023-02-28T05:20:47;101282.47;;;-2.11;81.93
54854;BME280;40747;49.480;8.658;2023-02-28T05:23:13;101197.81;;;-2.69;82.84
54854;BME280;40747;49.480;8.658;2023-02-28T05:25:39;101270.06;;;-2.22;81.87
54854;BME280;40747;49.480;8.658;2023-02-28T05:28:05;101295.06;;;-2.21;82.50
54854;BME280;40747;49.480;8.658;2023-02-28T05:30:31;101285.13;;;-2.10;81.85
54854;BME280;40747;49.480;8.658;2023-02-28T05:32:57;101293.84;;;-2.06;81.90
54854;BME280;40747;49.480;8.658;2023-02-28T05:35:23;101288.66;;;-2.08;81.92
54854;BME280;40747;49.480;8.658;2023-02-28T05:37:49;101279.00;;;-2.13;82.33
54854;BME280;40747;49.480;8.658;2023-02-28T05:40:14;101280.63;;;-2.16;82.82
54854;BME280;40747;49.480;8.658;2023-02-28T05:42:40;101287.66;;;-2.11;82.26
54854;BME280;40747;49.480;8.658;2023-02-28T05:45:06;101287.66;;;-2.11;82.55
54854;BME280;40747;49.480;8.658;2023-02-28T05:47:32;101287.97;;;-2.02;81.44
54854;BME280;40747;49.480;8.658;2023-02-28T05:49:57;101300.88;;;-2.02;81.36
54854;BME280;40747;49.480;8.658;2023-02-28T05:52:22;101290.84;;;-1.94;81.35
54854;BME280;40747;49.480;8.658;2023-02-28T05:54:48;101295.72;;;-2.02;80.90
54854;BME280;40747;49.480;8.658;2023-02-28T05:57:14;101288.16;;;-1.98;80.59
54854;BME280;40747;49.480;8.658;2023-02-28T05:59:40;101299.53;;;-1.68;79.72
54854;BME280;40747;49.480;8.658;2023-02-28T06:02:16;101291.25;;;-1.58;79.20
54854;BME280;40747;49.480;8.658;2023-02-28T06:04:42;101294.88;;;-1.53;78.69
54854;BME280;40747;49.480;8.658;2023-02-28T06:07:08;101283.69;;;-1.53;78.02
54854;BME280;40747;49.480;8.658;2023-02-28T06:09:33;101292.47;;;-1.48;78.15
54854;BME280;40747;49.480;8.658;2023-02-28T06:12:00;101298.25;;;-1.55;77.98
54854;BME280;40747;49.480;8.658;2023-02-28T06:14:27;101286.00;;;-1.61;78.39
54854;BME280;40747;49.480;8.658;2023-02-28T06:16:52;101307.84;;;-1.51;77.79
54854;BME280;40747;49.480;8.658;2023-02-28T06:19:17;101303.41;;;-1.55;78.02
54854;BME280;40747;49.480;8.658;2023-02-28T06:21:43;101314.41;;;-1.61;78.76
54854;BME280;40747;49.480;8.658;2023-02-28T06:24:08;101308.41;;;-1.60;78.76
54854;BME280;40747;49.480;8.658;2023-02-28T06:26:34;101289.28;;;-1.65;79.22
54854;BME280;40747;49.480;8.658;2023-02-28T06:28:59;101313.88;;;-1.52;78.64
54854;BME280;40747;49.480;8.658;2023-02-28T06:31:26;101319.13;;;-1.49;77.87
54854;BME280;40747;49.480;8.658;2023-02-28T06:33:51;101320.44;;;-1.36;77.78
54854;BME280;40747;49.480;8.658;2023-02-28T06:36:20;101315.69;;;-1.50;77.96
54854;BME280;40747;49.480;8.658;2023-02-28T06:38:46;101313.09;;;-1.50;78.44
54854;BME280;40747;49.480;8.658;2023-02-28T06:41:16;101310.91;;;-1.37;78.90
54854;BME280;40747;49.480;8.658;2023-02-28T06:43:41;101323.19;;;-1.32;78.03
54854;BME280;40747;49.480;8.658;2023-02-28T06:46:08;101323.19;;;-1.32;77.22
54854;BME280;40747;49.480;8.658;2023-02-28T06:48:35;101329.13;;;-1.34;77.87
54854;BME280;40747;49.480;8.658;2023-02-28T06:51:07;101319.19;;;-1.22;77.91
54854;BME280;40747;49.480;8.658;2023-02-28T06:53:33;101304.81;;;-1.13;77.07
54854;BME280;40747;49.480;8.658;2023-02-28T06:55:59;101324.59;;;-1.14;77.13
54854;BME280;40747;49.480;8.658;2023-02-28T06:58:24;101336.38;;;-0.96;75.85
54854;BME280;40747;49.480;8.658;2023-02-28T07:00:52;101323.03;;;-1.09;76.50
54854;BME280;40747;49.480;8.658;2023-02-28T07:03:18;101337.16;;;-0.99;76.53
54854;BME280;40747;49.480;8.658;2023-02-28T07:05:44;101332.59;;;-1.06;77.15
54854;BME280;40747;49.480;8.658;2023-02-28T07:08:10;101324.31;;;-0.96;76.47
54854;BME280;40747;49.480;8.658;2023-02-28T07:10:39;101332.97;;;-0.68;76.82
54854;BME280;40747;49.480;8.658;2023-02-28T07:13:05;101332.72;;;-0.76;75.92
54854;BME280;40747;49.480;8.658;2023-02-28T07:15:31;101335.44;;;-0.99;76.37
54854;BME280;40747;49.480;8.658;2023-02-28T07:17:56;101334.78;;;-0.93;76.89
54854;BME280;40747;49.480;8.658;2023-02-28T07:20:22;101355.69;;;-0.87;76.63
54854;BME280;40747;49.480;8.658;2023-02-28T07:22:48;101349.97;;;-0.76;75.82
54854;BME280;40747;49.480;8.658;2023-02-28T07:25:20;101352.22;;;-0.60;75.61
54854;BME280;40747;49.480;8.658;2023-02-28T07:27:46;101315.19;;;-0.59;74.71
54854;BME280;40747;49.480;8.658;2023-02-28T07:30:11;101363.06;;;-0.15;74.56
54854;BME280;40747;49.480;8.658;2023-02-28T07:32:37;101355.75;;;-0.29;73.76
54854;BME280;40747;49.480;8.658;2023-02-28T07:35:03;101352.13;;;-0.36;73.55
54854;BME280;40747;49.480;8.658;2023-02-28T07:37:28;101349.72;;;-0.29;73.70
54854;BME280;40747;49.480;8.658;2023-02-28T07:39:56;101344.38;;;-0.34;74.07
54854;BME280;40747;49.480;8.658;2023-02-28T07:42:21;101350.41;;;-0.35;73.90
54854;BME280;40747;49.480;8.658;2023-02-28T07:44:47;101344.66;;;-0.25;73.49
54854;BME280;40747;49.480;8.658;2023-02-28T07:47:12;101344.09;;;-0.14;73.52
54854;BME280;40747;49.480;8.658;2023-02-28T07:49:37;101324.78;;;-0.26;73.55
54854;BME280;40747;49.480;8.658;2023-02-28T07:52:04;101344.69;;;-0.23;73.35
54854;BME280;40747;49.480;8.658;2023-02-28T07:54:30;101351.03;;;-0.13;73.42
54854;BME280;40747;49.480;8.658;2023-02-28T07:56:56;101362.03;;;-0.21;73.82
54854;BME280;40747;49.480;8.658;2023-02-28T07:59:21;101360.38;;;-0.19;73.82
54854;BME280;40747;49.480;8.658;2023-02-28T08:01:46;101357.28;;;-0.07;72.92
54854;BME280;40747;49.480;8.658;2023-02-28T08:04:13;101355.63;;;-0.05;73.42
54854;BME280;40747;49.480;8.658;2023-02-28T08:06:39;101371.53;;;0.08;72.66
54854;BME280;40747;49.480;8.658;2023-02-28T08:09:04;101360.84;;;0.27;72.32
54854;BME280;40747;49.480;8.658;2023-02-28T08:11:29;101370.66;;;0.09;72.46
54854;BME280;40747;49.480;8.658;2023-02-28T08:13:55;101371.16;;;-0.05;72.80
54854;BME280;40747;49.480;8.658;2023-02-28T08:16:20;101359.59;;;0.13;72.59
54854;BME280;40747;49.480;8.658;2023-02-28T08:18:48;101360.44;;;0.13;72.66
54854;BME280;40747;49.480;8.658;2023-02-28T08:21:14;101342.13;;;0.07;71.87
54854;BME280;40747;49.480;8.658;2023-02-28T08:23:40;101357.91;;;0.15;71.79
54854;BME280;40747;49.480;8.658;2023-02-28T08:26:05;101357.25;;;0.22;72.28
54854;BME280;40747;49.480;8.658;2023-02-28T08:28:30;101351.84;;;0.45;71.71
54854;BME280;40747;49.480;8.658;2023-02-28T08:30:56;101341.50;;;0.14;71.16
54854;BME280;40747;49.480;8.658;2023-02-28T08:33:22;101350.16;;;0.16;71.71
54854;BME280;40747;49.480;8.658;2023-02-28T08:35:48;101351.53;;;0.34;72.00
54854;BME280;40747;49.480;8.658;2023-02-28T08:38:13;101338.13;;;0.49;71.10
54854;BME280;40747;49.480;8.658;2023-02-28T08:40:38;101337.38;;;0.55;70.22
54854;BME280;40747;49.480;8.658;2023-02-28T08:43:04;101352.25;;;0.94;70.02
54854;BME280;40747;49.480;8.658;2023-02-28T08:45:29;101341.56;;;1.17;68.22
54854;BME280;40747;49.480;8.658;2023-02-28T08:47:55;101343.72;;;1.35;67.67
54854;BME280;40747;49.480;8.658;2023-02-28T08:50:21;101353.56;;;1.50;67.44
54854;BME280;40747;49.480;8.658;2023-02-28T08:52:47;101339.88;;;1.57;66.47
54854;BME280;40747;49.480;8.658;2023-02-28T08:55:12;101339.75;;;1.90;65.69
54854;BME280;40747;49.480;8.658;2023-02-28T08:57:37;101344.13;;;1.93;65.30
54854;BME280;40747;49.480;8.658;2023-02-28T09:00:03;101347.97;;;2.10;64.60
54854;BME280;40747;49.480;8.658;2023-02-28T09:02:32;101327.78;;;2.41;64.35
54854;BME280;40747;49.480;8.658;2023-02-28T09:04:58;101333.84;;;2.88;62.08
54854;BME280;40747;49.480;8.658;2023-02-28T09:07:24;101344.25;;;2.88;62.28
54854;BME280;40747;49.480;8.658;2023-02-28T09:09:49;101336.31;;;2.82;62.88
54854;BME280;40747;49.480;8.658;2023-02-28T09:12:24;101344.25;;;3.43;61.34
54854;BME280;40747;49.480;8.658;2023-02-28T09:14:50;101349.09;;;3.20;60.22
54854;BME280;40747;49.480;8.658;2023-02-28T09:17:16;101328.78;;;3.55;59.98
54854;BME280;40747;49.480;8.658;2023-02-28T09:19:41;101344.81;;;3.85;58.87
54854;BME280;40747;49.480;8.658;2023-02-28T09:22:08;101330.03;;;4.56;59.61
54854;BME280;40747;49.480;8.658;2023-02-28T09:24:33;101345.38;;;5.14;57.05
54854;BME280;40747;49.480;8.658;2023-02-28T09:26:58;101292.50;;;4.41;55.73
54854;BME280;40747;49.480;8.658;2023-02-28T09:29:23;101321.44;;;4.68;56.04
54854;BME280;40747;49.480;8.658;2023-02-28T09:31:49;101334.88;;;5.13;54.33
54854;BME280;40747;49.480;8.658;2023-02-28T09:34:15;101328.28;;;5.63;54.66
54854;BME280;40747;49.480;8.658;2023-02-28T09:36:42;101334.19;;;5.35;53.78
54854;BME280;40747;49.480;8.658;2023-02-28T09:39:07;101328.91;;;5.26;54.39
54854;BME280;40747;49.480;8.658;2023-02-28T09:41:39;101326.78;;;4.79;54.79
54854;BME280;40747;49.480;8.658;2023-02-28T09:44:18;101319.88;;;4.02;55.12
54854;BME280;40747;49.480;8.658;2023-02-28T09:46:48;101329.44;;;4.02;55.96
54854;BME280;40747;49.480;8.658;2023-02-28T09:49:19;101334.56;;;3.33;56.42
54854;BME280;40747;49.480;8.658;2023-02-28T09:52:04;101329.34;;;3.34;57.69
54854;BME280;40747;49.480;8.658;2023-02-28T09:54:34;101324.25;;;4.05;56.87
54854;BME280;40747;49.480;8.658;2023-02-28T10:05:12;101329.03;;;4.45;55.08
54854;BME280;40747;49.480;8.658;2023-02-28T10:07:42;101339.56;;;4.52;54.65
54854;BME280;40747;49.480;8.658;2023-02-28T10:10:19;101330.53;;;4.21;54.99
54854;BME280;40747;49.480;8.658;2023-02-28T10:12:47;101306.53;;;3.77;56.51
54854;BME280;40747;49.480;8.658;2023-02-28T10:15:16;101334.44;;;3.86;56.55
54854;BME280;40747;49.480;8.658;2023-02-28T10:17:45;101317.44;;;4.19;54.43
54854;BME280;40747;49.480;8.658;2023-02-28T10:20:20;101319.53;;;4.50;55.18
54854;BME280;40747;49.480;8.658;2023-02-28T10:22:53;101332.78;;;4.68;55.69
54854;BME280;40747;49.480;8.658;2023-02-28T10:25:28;101332.06;;;4.86;55.49
54854;BME280;40747;49.480;8.658;2023-02-28T10:28:00;101321.97;;;5.33;55.37
54854;BME280;40747;49.480;8.658;2023-02-28T10:30:27;101318.69;;;5.60;54.09
54854;BME280;40747;49.480;8.658;2023-02-28T10:32:52;101325.56;;;5.46;53.70
54854;BME280;40747;49.480;8.658;2023-02-28T10:35:25;101330.81;;;5.50;55.57
54854;BME280;40747;49.480;8.658;2023-02-28T10:37:56;101329.38;;;6.03;52.90
54854;BME280;40747;49.480;8.658;2023-02-28T10:45:38;101313.94;;;5.05;53.15
54854;BME280;40747;49.480;8.658;2023-02-28T10:48:22;101329.81;;;5.28;52.73
54854;BME280;40747;49.480;8.658;2023-02-28T10:50:52;101329.75;;;5.23;52.17
54854;BME280;40747;49.480;8.658;2023-02-28T10:58:26;101335.44;;;4.74;52.77
54854;BME280;40747;49.480;8.658;2023-02-28T11:00:52;101338.22;;;4.91;52.79
54854;BME280;40747;49.480;8.658;2023-02-28T11:03:47;101327.78;;;4.93;53.03
54854;BME280;40747;49.480;8.658;2023-02-28T11:06:25;101319.59;;;4.57;53.04
54854;BME280;40747;49.480;8.658;2023-02-28T11:08:56;101332.00;;;4.77;53.10
54854;BME280;40747;49.480;8.658;2023-02-28T11:11:25;101312.03;;;4.87;52.97
54854;BME280;40747;49.480;8.658;2023-02-28T11:14:04;101316.22;;;4.68;52.59
54854;BME280;40747;49.480;8.658;2023-02-28T11:16:33;101322.44;;;4.81;52.48
54854;BME280;40747;49.480;8.658;2023-02-28T11:18:59;101312.16;;;5.02;52.75
54854;BME280;40747;49.480;8.658;2023-02-28T11:21:28;101322.03;;;4.40;53.79
54854;BME280;40747;49.480;8.658;2023-02-28T11:24:04;101317.88;;;4.58;54.31
54854;BME280;40747;49.480;8.658;2023-02-28T11:26:45;101313.06;;;5.04;52.79
54854;BME280;40747;49.480;8.658;2023-02-28T11:32:30;101302.38;;;4.72;53.51
54854;BME280;40747;49.480;8.658;2023-02-28T11:34:32;101308.44;;;4.72;52.95
54854;BME280;40747;49.480;8.658;2023-02-28T11:36:59;101297.09;;;4.70;52.70
54854;BME280;40747;49.480;8.658;2023-02-28T11:39:27;101308.63;;;4.94;53.12
54854;BME280;40747;49.480;8.658;2023-02-28T11:59:01;101296.25;;;4.73;52.58
54854;BME280;40747;49.480;8.658;2023-02-28T12:04:17;101287.22;;;5.45;51.22
54854;BME280;40747;49.480;8.658;2023-02-28T12:07:01;101291.31;;;5.04;50.96
54854;BME280;40747;49.480;8.658;2023-02-28T12:12:45;101285.66;;;5.76;50.01
54854;BME280;40747;49.480;8.658;2023-02-28T12:18:25;101290.06;;;5.88;49.78
54854;BME280;40747;49.480;8.658;2023-02-28T12:24:05;101280.66;;;6.35;49.54
54854;BME280;40747;49.480;8.658;2023-02-28T12:26:41;101276.13;;;5.86;49.49
54854;BME280;40747;49.480;8.658;2023-02-28T12:29:19;101296.88;;;5.56;51.20
54854;BME280;40747;49.480;8.658;2023-02-28T12:32:07;101284.63;;;5.51;51.20
54854;BME280;40747;49.480;8.658;2023-02-28T12:34:41;101289.63;;;5.09;51.87
54854;BME280;40747;49.480;8.658;2023-02-28T12:37:14;101274.69;;;4.96;52.47
54854;BME280;40747;49.480;8.658;2023-02-28T12:39:45;101270.31;;;4.90;52.46
54854;BME280;40747;49.480;8.658;2023-02-28T12:42:22;101275.31;;;4.64;52.79
54854;BME280;40747;49.480;8.658;2023-02-28T12:44:52;101271.84;;;4.66;53.54
54854;BME280;40747;49.480;8.658;2023-02-28T12:47:19;101282.41;;;4.82;54.11
54854;BME280;40747;49.480;8.658;2023-02-28T12:49:58;101270.38;;;4.99;53.94
54854;BME280;40747;49.480;8.658;2023-02-28T12:52:39;101270.53;;;5.21;54.24
54854;BME280;40747;49.480;8.658;2023-02-28T12:55:16;101269.38;;;4.82;54.29
54854;BME280;40747;49.480;8.658;2023-02-28T12:57:57;101269.16;;;4.58;53.97
54854;BME280;40747;49.480;8.658;2023-02-28T13:00:30;101274.47;;;4.66;54.07
54854;BME280;40747;49.480;8.658;2023-02-28T13:03:06;101270.72;;;4.38;54.14
54854;BME280;40747;49.480;8.658;2023-02-28T13:06:00;101278.53;;;4.39;55.38
54854;BME280;40747;49.480;8.658;2023-02-28T13:14:03;101275.47;;;4.84;54.22
54854;BME280;40747;49.480;8.658;2023-02-28T13:16:53;101254.63;;;4.87;53.58
54854;BME280;40747;49.480;8.658;2023-02-28T13:19:21;101274.31;;;4.52;54.34
54854;BME280;40747;49.480;8.658;2023-02-28T13:21:48;101266.47;;;4.48;54.97
54854;BME280;40747;49.480;8.658;2023-02-28T13:29:37;101269.88;;;4.43;55.73
54854;BME280;40747;49.480;8.658;2023-02-28T13:39:50;101271.91;;;4.75;55.65
54854;BME280;40747;49.480;8.658;2023-02-28T13:47:45;101268.19;;;4.46;55.83
54854;BME280;40747;49.480;8.658;2023-02-28T13:53:21;101269.28;;;4.72;55.26
54854;BME280;40747;49.480;8.658;2023-02-28T13:58:27;101265.00;;;4.81;55.01
54854;BME280;40747;49.480;8.658;2023-02-28T14:01:29;101269.28;;;4.69;54.42
54854;BME280;40747;49.480;8.658;2023-02-28T14:04:53;101264.91;;;4.68;55.43
54854;BME280;40747;49.480;8.658;2023-02-28T14:07:40;101259.69;;;4.68;55.25
54854;BME280;40747;49.480;8.658;2023-02-28T14:10:07;101268.19;;;4.49;55.53
54854;BME280;40747;49.480;8.658;2023-02-28T14:12:53;101262.97;;;4.46;55.28
54854;BME280;40747;49.480;8.658;2023-02-28T14:18:35;101222.00;;;4.34;55.45
54854;BME280;40747;49.480;8.658;2023-02-28T14:21:09;101271.09;;;4.80;56.16
54854;BME280;40747;49.480;8.658;2023-02-28T14:26:49;101278.47;;;4.33;56.88
54854;BME280;40747;49.480;8.658;2023-02-28T14:32:32;101292.44;;;4.35;55.55
54854;BME280;40747;49.480;8.658;2023-02-28T14:35:29;101272.31;;;4.23;55.45
54854;BME280;40747;49.480;8.658;2023-02-28T14:38:04;101274.16;;;4.34;56.52
54854;BME280;40747;49.480;8.658;2023-02-28T14:40:33;101288.28;;;4.56;56.06
54854;BME280;40747;49.480;8.658;2023-02-28T14:43:04;101276.69;;;4.26;56.39
54854;BME280;40747;49.480;8.658;2023-02-28T14:45:33;101274.72;;;4.06;56.10
54854;BME280;40747;49.480;8.658;2023-02-28T14:48:00;101280.81;;;4.05;56.73
54854;BME280;40747;49.480;8.658;2023-02-28T14:50:35;101290.25;;;3.99;56.16
54854;BME280;40747;49.480;8.658;2023-02-28T14:53:01;101283.25;;;3.91;57.18
54854;BME280;40747;49.480;8.658;2023-02-28T14:55:30;101282.47;;;4.00;56.92
54854;BME280;40747;49.480;8.658;2023-02-28T14:57:58;101279.75;;;3.89;57.50
54854;BME280;40747;49.480;8.658;2023-02-28T15:00:27;101292.69;;;3.82;57.40
54854;BME280;40747;49.480;8.658;2023-02-28T15:02:54;101291.00;;;3.88;58.00
54854;BME280;40747;49.480;8.658;2023-02-28T15:07:48;101276.09;;;3.75;57.79
54854;BME280;40747;49.480;8.658;2023-02-28T15:10:26;101277.13;;;3.88;56.98